sensor_id;sensor_type;location;lat;lon;timestamp;P1;durP1;ratioP1;P2;durP2;ratioP2
39362;SDS011;25088;43.238;23.110;2022-12-07T00:01:14;0.30;;;0.30;;
39362;SDS011;25088;43.238;23.110;2022-12-07T00:03:44;0.30;;;0.30;;
39362;SDS011;25088;43.238;23.110;2022-12-07T00:06:12;0.30;;;0.30;;
39362;SDS011;25088;43.238;23.110;2022-12-07T00:08:40;0.30;;;0.30;;
39362;SDS011;25088;43.238;23.110;2022-12-07T00:11:07;0.30;;;0.30;;
39362;SDS011;25088;43.238;23.110;2022-12-07T00:13:36;0.30;;;0.30;;
39362;SDS011;25088;43.238;23.110;2022-12-07T00:16:03;0.30;;;0.30;;
39362;SDS011;25088;43.238;23.110;2022-12-07T00:18:33;0.22;;;0.22;;
39362;SDS011;25088;43.238;23.110;2022-12-07T00:21:03;0.30;;;0.30;;
39362;SDS011;25088;43.238;23.110;2022-12-07T00:23:30;0.30;;;0.30;;
39362;SDS011;25088;43.238;23.110;2022-12-07T00:25:55;0.30;;;0.30;;
39362;SDS011;25088;43.238;23.110;2022-12-07T00:28:21;0.38;;;0.38;;
39362;SDS011;25088;43.238;23.110;2022-12-07T00:30:46;0.30;;;0.30;;
39362;SDS011;25088;43.238;23.110;2022-12-07T00:33:12;0.30;;;0.30;;
39362;SDS011;25088;43.238;23.110;2022-12-07T00:35:37;0.20;;;0.20;;
39362;SDS011;25088;43.238;23.110;2022-12-07T00:38:03;0.32;;;0.32;;
39362;SDS011;25088;43.238;23.110;2022-12-07T00:40:28;0.30;;;0.30;;
39362;SDS011;25088;43.238;23.110;2022-12-07T00:42:54;0.30;;;0.30;;
39362;SDS011;25088;43.238;23.110;2022-12-07T00:45:19;0.30;;;0.30;;
39362;SDS011;25088;43.238;23.110;2022-12-07T00:47:44;0.30;;;0.30;;
39362;SDS011;25088;43.238;23.110;2022-12-07T00:50:10;0.30;;;0.30;;
39362;SDS011;25088;43.238;23.110;2022-12-07T00:52:35;0.30;;;0.30;;
39362;SDS011;25088;43.238;23.110;2022-12-07T00:55:01;0.25;;;0.25;;
39362;SDS011;25088;43.238;23.110;2022-12-07T00:57:26;0.30;;;0.30;;
39362;SDS011;25088;43.238;23.110;2022-12-07T00:59:52;0.30;;;0.30;;
39362;SDS011;25088;43.238;23.110;2022-12-07T01:02:20;0.30;;;0.30;;
39362;SDS011;25088;43.238;23.110;2022-12-07T01:04:47;0.30;;;0.30;;
39362;SDS011;25088;43.238;23.110;2022-12-07T01:07:12;0.30;;;0.30;;
39362;SDS011;25088;43.238;23.110;2022-12-07T01:09:37;0.30;;;0.30;;
39362;SDS011;25088;43.238;23.110;2022-12-07T01:12:03;0.30;;;0.30;;
39362;SDS011;25088;43.238;23.110;2022-12-07T01:14:29;0.30;;;0.30;;
39362;SDS011;25088;43.238;23.110;2022-12-07T01:16:54;0.30;;;0.30;;
39362;SDS011;25088;43.238;23.110;2022-12-07T01:19:20;0.30;;;0.30;;
39362;SDS011;25088;43.238;23.110;2022-12-07T01:21:45;0.30;;;0.30;;
39362;SDS011;25088;43.238;23.110;2022-12-07T01:24:11;0.30;;;0.30;;
39362;SDS011;25088;43.238;23.110;2022-12-07T01:26:36;0.30;;;0.30;;
39362;SDS011;25088;43.238;23.110;2022-12-07T01:29:02;0.30;;;0.30;;
39362;SDS011;25088;43.238;23.110;2022-12-07T01:31:27;0.30;;;0.30;;
39362;SDS011;25088;43.238;23.110;2022-12-07T01:33:54;0.30;;;0.30;;
39362;SDS011;25088;43.238;23.110;2022-12-07T01:36:22;0.30;;;0.30;;
39362;SDS011;25088;43.238;23.110;2022-12-07T01:39:06;0.30;;;0.30;;
39362;SDS011;25088;43.238;23.110;2022-12-07T01:41:33;0.30;;;0.30;;
39362;SDS011;25088;43.238;23.110;2022-12-07T01:46:57;0.30;;;0.30;;
39362;SDS011;25088;43.238;23.110;2022-12-07T01:52:15;0.30;;;0.30;;
39362;SDS011;25088;43.238;23.110;2022-12-07T01:54:45;0.30;;;0.30;;
39362;SDS011;25088;43.238;23.110;2022-12-07T01:57:13;0.30;;;0.30;;
39362;SDS011;25088;43.238;23.110;2022-12-07T01:59:41;0.30;;;0.30;;
39362;SDS011;25088;43.238;23.110;2022-12-07T02:02:10;0.30;;;0.30;;
39362;SDS011;25088;43.238;23.110;2022-12-07T02:04:43;0.30;;;0.30;;
39362;SDS011;25088;43.238;23.110;2022-12-07T02:07:09;0.30;;;0.30;;
39362;SDS011;25088;43.238;23.110;2022-12-07T02:09:34;0.30;;;0.30;;
39362;SDS011;25088;43.238;23.110;2022-12-07T02:12:00;0.30;;;0.30;;
39362;SDS011;25088;43.238;23.110;2022-12-07T02:14:26;0.30;;;0.30;;
39362;SDS011;25088;43.238;23.110;2022-12-07T02:16:55;0.30;;;0.30;;
39362;SDS011;25088;43.238;23.110;2022-12-07T02:30:52;0.30;;;0.30;;
39362;SDS011;25088;43.238;23.110;2022-12-07T02:33:27;0.30;;;0.30;;
39362;SDS011;25088;43.238;23.110;2022-12-07T02:38:35;0.30;;;0.30;;
39362;SDS011;25088;43.238;23.110;2022-12-07T02:41:10;0.30;;;0.30;;
39362;SDS011;25088;43.238;23.110;2022-12-07T02:43:41;0.30;;;0.30;;
39362;SDS011;25088;43.238;23.110;2022-12-07T02:46:13;0.30;;;0.30;;
39362;SDS011;25088;43.238;23.110;2022-12-07T02:48:51;0.30;;;0.30;;
39362;SDS011;25088;43.238;23.110;2022-12-07T02:51:18;0.30;;;0.30;;
39362;SDS011;25088;43.238;23.110;2022-12-07T02:53:44;0.30;;;0.30;;
39362;SDS011;25088;43.238;23.110;2022-12-07T02:59:10;0.30;;;0.30;;
39362;SDS011;25088;43.238;23.110;2022-12-07T03:05:01;0.30;;;0.30;;
39362;SDS011;25088;43.238;23.110;2022-12-07T03:07:51;0.30;;;0.30;;
39362;SDS011;25088;43.238;23.110;2022-12-07T03:13:31;0.30;;;0.30;;
39362;SDS011;25088;43.238;23.110;2022-12-07T03:16:15;0.30;;;0.30;;
39362;SDS011;25088;43.238;23.110;2022-12-07T03:18:43;0.30;;;0.30;;
39362;SDS011;25088;43.238;23.110;2022-12-07T03:21:17;0.30;;;0.30;;
39362;SDS011;25088;43.238;23.110;2022-12-07T03:23:48;0.30;;;0.30;;
39362;SDS011;25088;43.238;23.110;2022-12-07T03:26:18;0.30;;;0.30;;
39362;SDS011;25088;43.238;23.110;2022-12-07T03:28:49;0.30;;;0.30;;
39362;SDS011;25088;43.238;23.110;2022-12-07T03:37:34;0.30;;;0.30;;
39362;SDS011;25088;43.238;23.110;2022-12-07T03:40:19;0.30;;;0.30;;
39362;SDS011;25088;43.238;23.110;2022-12-07T03:42:51;0.30;;;0.30;;
39362;SDS011;25088;43.238;23.110;2022-12-07T03:45:18;0.30;;;0.30;;
39362;SDS011;25088;43.238;23.110;2022-12-07T03:47:48;0.30;;;0.30;;
39362;SDS011;25088;43.238;23.110;2022-12-07T03:50:31;0.30;;;0.30;;
39362;SDS011;25088;43.238;23.110;2022-12-07T03:53:09;0.30;;;0.30;;
39362;SDS011;25088;43.238;23.110;2022-12-07T03:55:40;0.30;;;0.30;;
39362;SDS011;25088;43.238;23.110;2022-12-07T03:58:09;0.30;;;0.30;;
39362;SDS011;25088;43.238;23.110;2022-12-07T04:00:37;0.30;;;0.30;;
39362;SDS011;25088;43.238;23.110;2022-12-07T04:03:03;0.30;;;0.30;;
39362;SDS011;25088;43.238;23.110;2022-12-07T04:05:29;0.30;;;0.30;;
39362;SDS011;25088;43.238;23.110;2022-12-07T04:07:55;0.30;;;0.30;;
39362;SDS011;25088;43.238;23.110;2022-12-07T04:10:20;0.30;;;0.30;;
39362;SDS011;25088;43.238;23.110;2022-12-07T04:12:46;0.30;;;0.30;;
39362;SDS011;25088;43.238;23.110;2022-12-07T04:15:11;0.30;;;0.30;;
39362;SDS011;25088;43.238;23.110;2022-12-07T04:17:37;0.30;;;0.30;;
39362;SDS011;25088;43.238;23.110;2022-12-07T04:20:03;0.30;;;0.30;;
39362;SDS011;25088;43.238;23.110;2022-12-07T04:22:30;0.30;;;0.30;;
39362;SDS011;25088;43.238;23.110;2022-12-07T04:24:56;0.30;;;0.30;;
39362;SDS011;25088;43.238;23.110;2022-12-07T04:27:21;0.30;;;0.30;;
39362;SDS011;25088;43.238;23.110;2022-12-07T04:29:47;0.30;;;0.30;;
39362;SDS011;25088;43.238;23.110;2022-12-07T04:32:12;0.30;;;0.30;;
39362;SDS011;25088;43.238;23.110;2022-12-07T04:34:37;0.30;;;0.30;;
39362;SDS011;25088;43.238;23.110;2022-12-07T04:37:03;0.30;;;0.30;;
39362;SDS011;25088;43.238;23.110;2022-12-07T04:39:29;0.30;;;0.30;;
39362;SDS011;25088;43.238;23.110;2022-12-07T04:41:56;0.30;;;0.30;;
39362;SDS011;25088;43.238;23.110;2022-12-07T04:44:22;0.30;;;0.30;;
39362;SDS011;25088;43.238;23.110;2022-12-07T04:46:49;0.30;;;0.30;;
39362;SDS011;25088;43.238;23.110;2022-12-07T04:49:15;0.30;;;0.30;;
39362;SDS011;25088;43.238;23.110;2022-12-07T04:51:41;0.35;;;0.35;;
39362;SDS011;25088;43.238;23.110;2022-12-07T04:54:07;0.30;;;0.30;;
39362;SDS011;25088;43.238;23.110;2022-12-07T04:56:34;0.30;;;0.30;;
39362;SDS011;25088;43.238;23.110;2022-12-07T04:59:00;0.30;;;0.30;;
39362;SDS011;25088;43.238;23.110;2022-12-07T05:01:26;0.30;;;0.30;;
39362;SDS011;25088;43.238;23.110;2022-12-07T05:03:52;0.30;;;0.30;;
39362;SDS011;25088;43.238;23.110;2022-12-07T05:06:18;0.30;;;0.30;;
39362;SDS011;25088;43.238;23.110;2022-12-07T05:08:44;0.30;;;0.30;;
39362;SDS011;25088;43.238;23.110;2022-12-07T05:11:10;0.40;;;0.40;;
39362;SDS011;25088;43.238;23.110;2022-12-07T05:13:59;0.30;;;0.30;;
39362;SDS011;25088;43.238;23.110;2022-12-07T05:16:25;0.30;;;0.30;;
39362;SDS011;25088;43.238;23.110;2022-12-07T05:18:51;0.30;;;0.30;;
39362;SDS011;25088;43.238;23.110;2022-12-07T05:21:16;0.30;;;0.30;;
39362;SDS011;25088;43.238;23.110;2022-12-07T05:23:42;0.30;;;0.30;;
39362;SDS011;25088;43.238;23.110;2022-12-07T05:26:07;0.30;;;0.30;;
39362;SDS011;25088;43.238;23.110;2022-12-07T05:28:33;0.30;;;0.30;;
39362;SDS011;25088;43.238;23.110;2022-12-07T05:30:58;0.30;;;0.30;;
39362;SDS011;25088;43.238;23.110;2022-12-07T05:33:24;0.30;;;0.30;;
39362;SDS011;25088;43.238;23.110;2022-12-07T05:35:49;0.30;;;0.30;;
39362;SDS011;25088;43.238;23.110;2022-12-07T05:38:15;0.30;;;0.30;;
39362;SDS011;25088;43.238;23.110;2022-12-07T05:40:40;0.30;;;0.30;;
39362;SDS011;25088;43.238;23.110;2022-12-07T05:43:06;0.30;;;0.30;;
39362;SDS011;25088;43.238;23.110;2022-12-07T05:45:31;0.30;;;0.30;;
39362;SDS011;25088;43.238;23.110;2022-12-07T05:47:56;0.30;;;0.30;;
39362;SDS011;25088;43.238;23.110;2022-12-07T05:50:22;0.30;;;0.30;;
39362;SDS011;25088;43.238;23.110;2022-12-07T05:52:47;0.30;;;0.30;;
39362;SDS011;25088;43.238;23.110;2022-12-07T05:55:13;0.30;;;0.30;;
39362;SDS011;25088;43.238;23.110;2022-12-07T05:57:38;0.30;;;0.30;;
39362;SDS011;25088;43.238;23.110;2022-12-07T06:00:04;0.20;;;0.20;;
39362;SDS011;25088;43.238;23.110;2022-12-07T06:02:30;0.30;;;0.30;;
39362;SDS011;25088;43.238;23.110;2022-12-07T06:04:55;0.30;;;0.30;;
39362;SDS011;25088;43.238;23.110;2022-12-07T06:07:21;0.20;;;0.20;;
39362;SDS011;25088;43.238;23.110;2022-12-07T06:09:46;0.30;;;0.30;;
39362;SDS011;25088;43.238;23.110;2022-12-07T06:12:12;0.20;;;0.20;;
39362;SDS011;25088;43.238;23.110;2022-12-07T06:15:01;0.30;;;0.30;;
39362;SDS011;25088;43.238;23.110;2022-12-07T06:17:27;0.20;;;0.20;;
39362;SDS011;25088;43.238;23.110;2022-12-07T06:19:52;0.30;;;0.30;;
39362;SDS011;25088;43.238;23.110;2022-12-07T06:22:18;0.30;;;0.30;;
39362;SDS011;25088;43.238;23.110;2022-12-07T06:24:43;0.22;;;0.22;;
39362;SDS011;25088;43.238;23.110;2022-12-07T06:27:09;0.30;;;0.30;;
39362;SDS011;25088;43.238;23.110;2022-12-07T06:29:35;0.30;;;0.30;;
39362;SDS011;25088;43.238;23.110;2022-12-07T06:32:00;0.30;;;0.30;;
39362;SDS011;25088;43.238;23.110;2022-12-07T06:34:26;0.20;;;0.20;;
39362;SDS011;25088;43.238;23.110;2022-12-07T06:36:52;0.30;;;0.30;;
39362;SDS011;25088;43.238;23.110;2022-12-07T06:39:26;0.28;;;0.28;;
39362;SDS011;25088;43.238;23.110;2022-12-07T06:41:52;0.30;;;0.30;;
39362;SDS011;25088;43.238;23.110;2022-12-07T06:44:19;0.30;;;0.30;;
39362;SDS011;25088;43.238;23.110;2022-12-07T06:46:45;0.30;;;0.30;;
39362;SDS011;25088;43.238;23.110;2022-12-07T06:49:10;0.30;;;0.30;;
39362;SDS011;25088;43.238;23.110;2022-12-07T06:51:36;0.30;;;0.30;;
39362;SDS011;25088;43.238;23.110;2022-12-07T06:54:06;0.30;;;0.30;;
39362;SDS011;25088;43.238;23.110;2022-12-07T06:56:32;0.30;;;0.30;;
39362;SDS011;25088;43.238;23.110;2022-12-07T06:58:58;0.30;;;0.30;;
39362;SDS011;25088;43.238;23.110;2022-12-07T07:01:23;0.30;;;0.30;;
39362;SDS011;25088;43.238;23.110;2022-12-07T07:03:48;0.20;;;0.20;;
39362;SDS011;25088;43.238;23.110;2022-12-07T07:06:15;0.20;;;0.20;;
39362;SDS011;25088;43.238;23.110;2022-12-07T07:08:41;0.25;;;0.25;;
39362;SDS011;25088;43.238;23.110;2022-12-07T07:11:07;0.30;;;0.30;;
39362;SDS011;25088;43.238;23.110;2022-12-07T07:13:34;0.30;;;0.30;;
39362;SDS011;25088;43.238;23.110;2022-12-07T07:15:59;0.20;;;0.20;;
39362;SDS011;25088;43.238;23.110;2022-12-07T07:18:25;0.20;;;0.20;;
39362;SDS011;25088;43.238;23.110;2022-12-07T07:20:51;0.20;;;0.20;;
39362;SDS011;25088;43.238;23.110;2022-12-07T07:23:18;0.22;;;0.22;;
39362;SDS011;25088;43.238;23.110;2022-12-07T07:25:44;0.20;;;0.20;;
39362;SDS011;25088;43.238;23.110;2022-12-07T07:28:09;0.30;;;0.30;;
39362;SDS011;25088;43.238;23.110;2022-12-07T07:30:36;0.20;;;0.20;;
39362;SDS011;25088;43.238;23.110;2022-12-07T07:33:02;0.20;;;0.20;;
39362;SDS011;25088;43.238;23.110;2022-12-07T07:35:29;0.20;;;0.20;;
39362;SDS011;25088;43.238;23.110;2022-12-07T07:37:56;0.30;;;0.30;;
39362;SDS011;25088;43.238;23.110;2022-12-07T07:40:22;0.20;;;0.20;;
39362;SDS011;25088;43.238;23.110;2022-12-07T07:42:48;0.20;;;0.20;;
39362;SDS011;25088;43.238;23.110;2022-12-07T07:45:14;0.30;;;0.30;;
39362;SDS011;25088;43.238;23.110;2022-12-07T07:47:40;0.20;;;0.20;;
39362;SDS011;25088;43.238;23.110;2022-12-07T07:50:06;0.20;;;0.20;;
39362;SDS011;25088;43.238;23.110;2022-12-07T07:52:31;0.22;;;0.22;;
39362;SDS011;25088;43.238;23.110;2022-12-07T07:54:57;0.20;;;0.20;;
39362;SDS011;25088;43.238;23.110;2022-12-07T07:57:22;0.20;;;0.20;;
39362;SDS011;25088;43.238;23.110;2022-12-07T07:59:48;0.20;;;0.20;;
39362;SDS011;25088;43.238;23.110;2022-12-07T08:02:14;0.20;;;0.20;;
39362;SDS011;25088;43.238;23.110;2022-12-07T08:04:42;0.20;;;0.20;;
39362;SDS011;25088;43.238;23.110;2022-12-07T08:07:08;0.20;;;0.20;;
39362;SDS011;25088;43.238;23.110;2022-12-07T08:09:33;0.20;;;0.20;;
39362;SDS011;25088;43.238;23.110;2022-12-07T08:11:58;0.20;;;0.20;;
39362;SDS011;25088;43.238;23.110;2022-12-07T08:14:24;0.20;;;0.20;;
39362;SDS011;25088;43.238;23.110;2022-12-07T08:16:50;0.20;;;0.20;;
39362;SDS011;25088;43.238;23.110;2022-12-07T08:19:16;0.20;;;0.20;;
39362;SDS011;25088;43.238;23.110;2022-12-07T08:21:41;0.20;;;0.20;;
39362;SDS011;25088;43.238;23.110;2022-12-07T08:24:07;0.20;;;0.20;;
39362;SDS011;25088;43.238;23.110;2022-12-07T08:26:32;0.20;;;0.20;;
39362;SDS011;25088;43.238;23.110;2022-12-07T08:28:59;0.20;;;0.20;;
39362;SDS011;25088;43.238;23.110;2022-12-07T08:31:24;0.25;;;0.25;;
39362;SDS011;25088;43.238;23.110;2022-12-07T08:33:50;0.20;;;0.20;;
39362;SDS011;25088;43.238;23.110;2022-12-07T08:36:15;0.20;;;0.20;;
39362;SDS011;25088;43.238;23.110;2022-12-07T08:38:42;0.20;;;0.20;;
39362;SDS011;25088;43.238;23.110;2022-12-07T08:41:07;0.20;;;0.20;;
39362;SDS011;25088;43.238;23.110;2022-12-07T08:43:33;0.20;;;0.20;;
39362;SDS011;25088;43.238;23.110;2022-12-07T08:46:03;0.20;;;0.20;;
39362;SDS011;25088;43.238;23.110;2022-12-07T08:48:36;0.20;;;0.20;;
39362;SDS011;25088;43.238;23.110;2022-12-07T08:51:10;0.20;;;0.20;;
39362;SDS011;25088;43.238;23.110;2022-12-07T08:53:37;0.20;;;0.20;;
39362;SDS011;25088;43.238;23.110;2022-12-07T08:56:03;0.20;;;0.20;;
39362;SDS011;25088;43.238;23.110;2022-12-07T08:58:29;0.20;;;0.20;;
39362;SDS011;25088;43.238;23.110;2022-12-07T09:00:55;0.20;;;0.20;;
39362;SDS011;25088;43.238;23.110;2022-12-07T09:03:20;0.20;;;0.20;;
39362;SDS011;25088;43.238;23.110;2022-12-07T09:05:46;0.20;;;0.20;;
39362;SDS011;25088;43.238;23.110;2022-12-07T09:08:11;0.20;;;0.20;;
39362;SDS011;25088;43.238;23.110;2022-12-07T09:10:37;0.20;;;0.20;;
39362;SDS011;25088;43.238;23.110;2022-12-07T09:13:02;0.20;;;0.20;;
39362;SDS011;25088;43.238;23.110;2022-12-07T09:15:28;0.20;;;0.20;;
39362;SDS011;25088;43.238;23.110;2022-12-07T09:17:55;0.20;;;0.20;;
39362;SDS011;25088;43.238;23.110;2022-12-07T09:20:20;0.20;;;0.20;;
39362;SDS011;25088;43.238;23.110;2022-12-07T09:22:46;0.20;;;0.20;;
39362;SDS011;25088;43.238;23.110;2022-12-07T09:25:11;0.20;;;0.20;;
39362;SDS011;25088;43.238;23.110;2022-12-07T09:27:37;0.20;;;0.20;;
39362;SDS011;25088;43.238;23.110;2022-12-07T09:30:03;0.20;;;0.20;;
39362;SDS011;25088;43.238;23.110;2022-12-07T09:32:29;0.20;;;0.20;;
39362;SDS011;25088;43.238;23.110;2022-12-07T09:34:55;0.20;;;0.20;;
39362;SDS011;25088;43.238;23.110;2022-12-07T09:37:20;0.20;;;0.20;;
39362;SDS011;25088;43.238;23.110;2022-12-07T09:39:46;0.20;;;0.20;;
39362;SDS011;25088;43.238;23.110;2022-12-07T09:42:18;0.20;;;0.20;;
39362;SDS011;25088;43.238;23.110;2022-12-07T09:44:46;0.10;;;0.10;;
39362;SDS011;25088;43.238;23.110;2022-12-07T09:47:11;0.20;;;0.20;;
39362;SDS011;25088;43.238;23.110;2022-12-07T09:49:37;0.20;;;0.20;;
39362;SDS011;25088;43.238;23.110;2022-12-07T09:52:16;0.10;;;0.10;;
39362;SDS011;25088;43.238;23.110;2022-12-07T09:54:44;0.20;;;0.20;;
39362;SDS011;25088;43.238;23.110;2022-12-07T09:57:14;0.20;;;0.20;;
39362;SDS011;25088;43.238;23.110;2022-12-07T09:59:40;0.10;;;0.10;;
39362;SDS011;25088;43.238;23.110;2022-12-07T10:04:59;0.20;;;0.20;;
39362;SDS011;25088;43.238;23.110;2022-12-07T10:07:26;0.10;;;0.10;;
39362;SDS011;25088;43.238;23.110;2022-12-07T10:09:51;0.10;;;0.10;;
39362;SDS011;25088;43.238;23.110;2022-12-07T10:12:16;0.20;;;0.20;;
39362;SDS011;25088;43.238;23.110;2022-12-07T10:15:01;0.10;;;0.10;;
39362;SDS011;25088;43.238;23.110;2022-12-07T10:17:31;0.10;;;0.10;;
39362;SDS011;25088;43.238;23.110;2022-12-07T10:25:28;0.20;;;0.20;;
39362;SDS011;25088;43.238;23.110;2022-12-07T10:30:27;0.10;;;0.10;;
39362;SDS011;25088;43.238;23.110;2022-12-07T10:32:53;0.20;;;0.20;;
39362;SDS011;25088;43.238;23.110;2022-12-07T10:37:47;0.10;;;0.10;;
39362;SDS011;25088;43.238;23.110;2022-12-07T10:40:34;0.13;;;0.13;;
39362;SDS011;25088;43.238;23.110;2022-12-07T10:43:01;0.10;;;0.10;;
39362;SDS011;25088;43.238;23.110;2022-12-07T10:45:30;0.20;;;0.20;;
39362;SDS011;25088;43.238;23.110;2022-12-07T10:53:32;0.10;;;0.10;;
39362;SDS011;25088;43.238;23.110;2022-12-07T11:11:09;0.17;;;0.17;;
39362;SDS011;25088;43.238;23.110;2022-12-07T11:14:13;0.10;;;0.10;;
39362;SDS011;25088;43.238;23.110;2022-12-07T11:16:56;0.20;;;0.20;;
39362;SDS011;25088;43.238;23.110;2022-12-07T11:28:20;0.10;;;0.10;;
39362;SDS011;25088;43.238;23.110;2022-12-07T11:33:44;0.10;;;0.10;;
39362;SDS011;25088;43.238;23.110;2022-12-07T11:36:30;0.10;;;0.10;;
39362;SDS011;25088;43.238;23.110;2022-12-07T11:42:16;0.10;;;0.10;;
39362;SDS011;25088;43.238;23.110;2022-12-07T11:47:22;0.10;;;0.10;;
39362;SDS011;25088;43.238;23.110;2022-12-07T11:58:23;0.10;;;0.10;;
39362;SDS011;25088;43.238;23.110;2022-12-07T12:03:40;0.10;;;0.10;;
39362;SDS011;25088;43.238;23.110;2022-12-07T12:06:17;0.20;;;0.20;;
39362;SDS011;25088;43.238;23.110;2022-12-07T12:09:28;0.10;;;0.10;;
39362;SDS011;25088;43.238;23.110;2022-12-07T12:11:55;0.10;;;0.10;;
39362;SDS011;25088;43.238;23.110;2022-12-07T12:14:42;0.10;;;0.10;;
39362;SDS011;25088;43.238;23.110;2022-12-07T12:17:34;0.20;;;0.20;;
39362;SDS011;25088;43.238;23.110;2022-12-07T12:25:29;0.20;;;0.20;;
39362;SDS011;25088;43.238;23.110;2022-12-07T12:28:00;0.20;;;0.20;;
39362;SDS011;25088;43.238;23.110;2022-12-07T12:30:36;0.20;;;0.20;;
39362;SDS011;25088;43.238;23.110;2022-12-07T12:33:22;0.10;;;0.10;;
39362;SDS011;25088;43.238;23.110;2022-12-07T12:49:35;0.10;;;0.10;;
39362;SDS011;25088;43.238;23.110;2022-12-07T12:54:38;0.10;;;0.10;;
39362;SDS011;25088;43.238;23.110;2022-12-07T12:57:18;0.10;;;0.10;;
39362;SDS011;25088;43.238;23.110;2022-12-07T13:02:30;0.10;;;0.10;;
39362;SDS011;25088;43.238;23.110;2022-12-07T13:10:53;0.10;;;0.10;;
39362;SDS011;25088;43.238;23.110;2022-12-07T13:21:02;0.10;;;0.10;;
39362;SDS011;25088;43.238;23.110;2022-12-07T13:23:36;0.10;;;0.10;;
39362;SDS011;25088;43.238;23.110;2022-12-07T13:26:18;0.10;;;0.10;;
39362;SDS011;25088;43.238;23.110;2022-12-07T13:29:05;0.10;;;0.10;;
39362;SDS011;25088;43.238;23.110;2022-12-07T13:31:36;0.13;;;0.13;;
39362;SDS011;25088;43.238;23.110;2022-12-07T13:34:04;0.10;;;0.10;;
39362;SDS011;25088;43.238;23.110;2022-12-07T13:36:50;0.10;;;0.10;;
39362;SDS011;25088;43.238;23.110;2022-12-07T13:39:18;0.20;;;0.20;;
39362;SDS011;25088;43.238;23.110;2022-12-07T13:41:54;0.20;;;0.20;;
39362;SDS011;25088;43.238;23.110;2022-12-07T13:44:22;0.20;;;0.20;;
39362;SDS011;25088;43.238;23.110;2022-12-07T13:46:54;0.20;;;0.20;;
39362;SDS011;25088;43.238;23.110;2022-12-07T13:50:00;0.20;;;0.20;;
39362;SDS011;25088;43.238;23.110;2022-12-07T13:52:27;0.20;;;0.20;;
39362;SDS011;25088;43.238;23.110;2022-12-07T13:54:57;0.20;;;0.20;;
39362;SDS011;25088;43.238;23.110;2022-12-07T13:57:26;0.20;;;0.20;;
39362;SDS011;25088;43.238;23.110;2022-12-07T13:59:54;0.20;;;0.20;;
39362;SDS011;25088;43.238;23.110;2022-12-07T14:02:20;0.20;;;0.20;;
39362;SDS011;25088;43.238;23.110;2022-12-07T14:04:49;0.20;;;0.20;;
39362;SDS011;25088;43.238;23.110;2022-12-07T14:07:26;0.20;;;0.20;;
39362;SDS011;25088;43.238;23.110;2022-12-07T14:09:56;0.20;;;0.20;;
39362;SDS011;25088;43.238;23.110;2022-12-07T14:12:27;0.30;;;0.30;;
39362;SDS011;25088;43.238;23.110;2022-12-07T14:14:54;0.20;;;0.20;;
39362;SDS011;25088;43.238;23.110;2022-12-07T14:17:24;0.30;;;0.30;;
39362;SDS011;25088;43.238;23.110;2022-12-07T14:19:58;0.20;;;0.20;;
39362;SDS011;25088;43.238;23.110;2022-12-07T14:24:50;0.50;;;0.50;;
39362;SDS011;25088;43.238;23.110;2022-12-07T14:27:24;0.30;;;0.30;;
39362;SDS011;25088;43.238;23.110;2022-12-07T14:34:57;0.70;;;0.70;;
39362;SDS011;25088;43.238;23.110;2022-12-07T14:37:25;0.50;;;0.50;;
39362;SDS011;25088;43.238;23.110;2022-12-07T14:39:52;0.40;;;0.40;;
39362;SDS011;25088;43.238;23.110;2022-12-07T14:42:18;0.50;;;0.50;;
39362;SDS011;25088;43.238;23.110;2022-12-07T14:44:44;0.50;;;0.50;;
39362;SDS011;25088;43.238;23.110;2022-12-07T14:47:10;0.30;;;0.30;;
39362;SDS011;25088;43.238;23.110;2022-12-07T14:49:36;0.50;;;0.50;;
39362;SDS011;25088;43.238;23.110;2022-12-07T14:52:02;0.40;;;0.40;;
39362;SDS011;25088;43.238;23.110;2022-12-07T14:54:30;0.40;;;0.40;;
39362;SDS011;25088;43.238;23.110;2022-12-07T14:56:58;0.63;;;0.63;;
39362;SDS011;25088;43.238;23.110;2022-12-07T14:59:23;0.60;;;0.60;;
39362;SDS011;25088;43.238;23.110;2022-12-07T15:01:49;0.60;;;0.60;;
39362;SDS011;25088;43.238;23.110;2022-12-07T15:04:14;0.30;;;0.30;;
39362;SDS011;25088;43.238;23.110;2022-12-07T15:06:40;0.40;;;0.40;;
39362;SDS011;25088;43.238;23.110;2022-12-07T15:09:08;0.60;;;0.60;;
39362;SDS011;25088;43.238;23.110;2022-12-07T15:11:36;0.63;;;0.63;;
39362;SDS011;25088;43.238;23.110;2022-12-07T15:14:01;0.50;;;0.50;;
39362;SDS011;25088;43.238;23.110;2022-12-07T15:16:33;0.40;;;0.40;;
39362;SDS011;25088;43.238;23.110;2022-12-07T15:19:05;0.70;;;0.70;;
39362;SDS011;25088;43.238;23.110;2022-12-07T15:21:31;0.65;;;0.65;;
39362;SDS011;25088;43.238;23.110;2022-12-07T15:23:56;0.50;;;0.50;;
39362;SDS011;25088;43.238;23.110;2022-12-07T15:26:22;0.60;;;0.60;;
39362;SDS011;25088;43.238;23.110;2022-12-07T15:28:47;0.40;;;0.40;;
39362;SDS011;25088;43.238;23.110;2022-12-07T15:31:13;0.60;;;0.60;;
39362;SDS011;25088;43.238;23.110;2022-12-07T15:33:40;0.50;;;0.50;;
39362;SDS011;25088;43.238;23.110;2022-12-07T15:36:06;0.82;;;0.82;;
39362;SDS011;25088;43.238;23.110;2022-12-07T15:38:32;0.50;;;0.50;;
39362;SDS011;25088;43.238;23.110;2022-12-07T15:40:57;0.40;;;0.40;;
39362;SDS011;25088;43.238;23.110;2022-12-07T15:43:23;0.40;;;0.40;;
39362;SDS011;25088;43.238;23.110;2022-12-07T15:46:07;0.40;;;0.40;;
39362;SDS011;25088;43.238;23.110;2022-12-07T15:48:33;0.60;;;0.60;;
39362;SDS011;25088;43.238;23.110;2022-12-07T15:51:02;0.50;;;0.50;;
39362;SDS011;25088;43.238;23.110;2022-12-07T15:53:28;0.60;;;0.60;;
39362;SDS011;25088;43.238;23.110;2022-12-07T15:55:54;0.47;;;0.47;;
39362;SDS011;25088;43.238;23.110;2022-12-07T15:58:19;0.45;;;0.45;;
39362;SDS011;25088;43.238;23.110;2022-12-07T16:00:45;0.50;;;0.50;;
39362;SDS011;25088;43.238;23.110;2022-12-07T16:03:12;0.47;;;0.47;;
39362;SDS011;25088;43.238;23.110;2022-12-07T16:05:37;1.25;;;1.25;;
39362;SDS011;25088;43.238;23.110;2022-12-07T16:08:02;0.50;;;0.50;;
39362;SDS011;25088;43.238;23.110;2022-12-07T16:10:28;0.60;;;0.60;;
39362;SDS011;25088;43.238;23.110;2022-12-07T16:12:54;0.50;;;0.50;;
39362;SDS011;25088;43.238;23.110;2022-12-07T16:15:19;0.40;;;0.40;;
39362;SDS011;25088;43.238;23.110;2022-12-07T16:17:45;0.50;;;0.50;;
39362;SDS011;25088;43.238;23.110;2022-12-07T16:20:10;0.50;;;0.50;;
39362;SDS011;25088;43.238;23.110;2022-12-07T16:22:36;0.30;;;0.30;;
39362;SDS011;25088;43.238;23.110;2022-12-07T16:25:01;0.30;;;0.30;;
39362;SDS011;25088;43.238;23.110;2022-12-07T16:27:27;0.60;;;0.60;;
39362;SDS011;25088;43.238;23.110;2022-12-07T16:29:52;0.70;;;0.70;;
39362;SDS011;25088;43.238;23.110;2022-12-07T16:32:17;0.20;;;0.20;;
39362;SDS011;25088;43.238;23.110;2022-12-07T16:34:43;0.40;;;0.40;;
39362;SDS011;25088;43.238;23.110;2022-12-07T16:37:08;0.70;;;0.70;;
39362;SDS011;25088;43.238;23.110;2022-12-07T16:39:34;0.40;;;0.40;;
39362;SDS011;25088;43.238;23.110;2022-12-07T16:42:00;0.60;;;0.60;;
39362;SDS011;25088;43.238;23.110;2022-12-07T16:44:25;0.30;;;0.30;;
39362;SDS011;25088;43.238;23.110;2022-12-07T16:46:51;0.25;;;0.25;;
39362;SDS011;25088;43.238;23.110;2022-12-07T16:49:16;0.20;;;0.20;;
39362;SDS011;25088;43.238;23.110;2022-12-07T16:51:43;0.30;;;0.30;;
39362;SDS011;25088;43.238;23.110;2022-12-07T16:54:10;0.40;;;0.40;;
39362;SDS011;25088;43.238;23.110;2022-12-07T16:56:36;0.20;;;0.20;;
39362;SDS011;25088;43.238;23.110;2022-12-07T16:59:02;0.22;;;0.22;;
39362;SDS011;25088;43.238;23.110;2022-12-07T17:01:28;0.30;;;0.30;;
39362;SDS011;25088;43.238;23.110;2022-12-07T17:03:54;0.30;;;0.30;;